Time;durP1;ratioP1;P1;durP2;ratioP2;P2;SDS_P1;SDS_P2;PMS_P1;PMS_P2;Temp;Humidity;BMP_temperature;BMP_pressure;BME280_temperature;BME280_humidity;BME280_pressure;Samples;Min_cycle;Max_cycle;Signal;HPM_P1;HPM_P2
2023/05/23 00:00:32;;;;;;;;;;;23.80;51.90;;;;;;1513619;77;1913;-58
2023/05/23 00:02:34;;;;;;;;;;;23.80;51.90;;;;;;1520657;78;2173;-57
2023/05/23 00:04:35;;;;;;;;;;;23.90;52.00;;;;;;1530641;76;1071;-59
2023/05/23 00:06:37;;;;;;;;;;;23.90;51.90;;;;;;1536839;76;1190;-59
2023/05/23 00:08:39;;;;;;;;;;;23.80;51.80;;;;;;1521031;77;767;-58
2023/05/23 00:10:41;;;;;;;;;;;23.80;51.80;;;;;;1520804;76;1511;-59
2023/05/23 00:12:43;;;;;;;;;;;23.80;51.80;;;;;;1535521;76;717;-58
2023/05/23 00:14:45;;;;;;;;;;;23.80;51.70;;;;;;1526268;78;715;-59
2023/05/23 00:16:48;;;;;;;;;;;23.80;51.70;;;;;;1536538;76;1218;-58
2023/05/23 00:18:50;;;;;;;;;;;23.90;51.80;;;;;;1519339;76;885;-60
2023/05/23 00:20:52;;;;;;;;;;;23.80;51.60;;;;;;1536735;76;1920;-57
2023/05/23 00:22:57;;;;;;;;;;;23.90;51.70;;;;;;1507284;77;1545;-57
2023/05/23 00:24:58;;;;;;;;;;;23.90;51.90;;;;;;1530495;76;1712;-58
2023/05/23 00:27:00;;;;;;;;;;;23.70;51.90;;;;;;1498196;77;1218;-57
2023/05/23 00:29:02;;;;;;;;;;;23.80;52.00;;;;;;1524025;78;720;-57
2023/05/23 00:31:03;;;;;;;;;;;23.80;52.10;;;;;;1526266;78;694;-59
2023/05/23 00:33:05;;;;;;;;;;;23.80;52.00;;;;;;1531725;76;719;-59
2023/05/23 00:35:08;;;;;;;;;;;23.80;52.00;;;;;;1536653;77;743;-57
2023/05/23 00:37:10;;;;;;;;;;;23.70;52.00;;;;;;1533594;77;1478;-59
2023/05/23 00:39:18;;;;;;;;;;;23.80;51.90;;;;;;1527302;76;670;-59
2023/05/23 00:41:20;;;;;;;;;;;23.90;51.90;;;;;;1525488;76;1924;-59
2023/05/23 00:43:22;;;;;;;;;;;23.90;51.80;;;;;;1536586;77;668;-59
2023/05/23 00:45:24;;;;;;;;;;;23.80;51.60;;;;;;1521864;76;885;-57
2023/05/23 00:47:26;;;;;;;;;;;23.90;51.80;;;;;;1519905;76;1084;-58
2023/05/23 00:49:28;;;;;;;;;;;23.80;51.60;;;;;;1526138;78;755;-57
2023/05/23 00:51:30;;;;;;;;;;;23.90;51.70;;;;;;1526353;78;1422;-58
2023/05/23 00:53:33;;;;;;;;;;;23.90;51.70;;;;;;1527562;76;804;-57
2023/05/23 00:55:35;;;;;;;;;;;23.80;51.70;;;;;;1536481;76;593;-59
2023/05/23 00:57:39;;;;;;;;;;;23.90;51.80;;;;;;1526018;76;1140;-58
2023/05/23 00:59:41;;;;;;;;;;;23.80;51.60;;;;;;1515943;78;605;-56
2023/05/23 01:01:45;;;;;;;;;;;23.90;51.70;;;;;;1521532;78;1938;-58
2023/05/23 01:03:47;;;;;;;;;;;23.80;51.70;;;;;;1526205;78;938;-55
2023/05/23 01:05:49;;;;;;;;;;;23.80;51.80;;;;;;1536309;76;1434;-56
2023/05/23 01:07:51;;;;;;;;;;;23.80;51.80;;;;;;1525157;77;1172;-58
2023/05/23 01:09:52;;;;;;;;;;;23.90;51.90;;;;;;1534188;76;832;-59
2023/05/23 01:12:05;;;;;;;;;;;23.90;52.00;;;;;;1531842;77;722;-57
2023/05/23 01:14:08;;;;;;;;;;;23.80;51.90;;;;;;1518931;78;1920;-59
2023/05/23 01:16:12;;;;;;;;;;;23.70;52.10;;;;;;1519467;76;715;-59
2023/05/23 01:18:18;;;;;;;;;;;23.70;52.00;;;;;;1526166;78;1067;-57
2023/05/23 01:20:28;;;;;;;;;;;23.80;51.80;;;;;;1498930;78;1926;-58
2023/05/23 01:22:49;;;;;;;;;;;23.80;52.00;;;;;;1561260;74;1594;-55
2023/05/23 01:24:52;;;;;;;;;;;23.80;51.80;;;;;;1558298;76;674;-58
2023/05/23 01:26:56;;;;;;;;;;;23.80;51.80;;;;;;1552789;75;1821;-55
2023/05/23 01:29:04;;;;;;;;;;;23.90;51.90;;;;;;1562295;74;720;-57
2023/05/23 01:31:04;;;;;;;;;;;23.80;51.80;;;;;;1563592;74;1553;-58
2023/05/23 01:33:06;;;;;;;;;;;23.70;51.90;;;;;;1559510;75;1455;-57
2023/05/23 01:35:08;;;;;;;;;;;23.70;52.00;;;;;;1563605;76;853;-57
2023/05/23 01:37:10;;;;;;;;;;;23.70;51.90;;;;;;1559075;75;1162;-58
2023/05/23 01:39:12;;;;;;;;;;;23.70;51.80;;;;;;1559491;74;681;-57
2023/05/23 01:41:13;;;;;;;;;;;23.80;51.90;;;;;;1561520;74;1926;-57
2023/05/23 01:43:15;;;;;;;;;;;23.70;51.90;;;;;;1561076;75;804;-57
2023/05/23 01:45:17;;;;;;;;;;;23.70;52.00;;;;;;1558321;74;882;-59
2023/05/23 01:47:19;;;;;;;;;;;23.70;52.00;;;;;;1566592;74;1521;-57
2023/05/23 01:49:21;;;;;;;;;;;23.70;52.20;;;;;;1559634;75;722;-59
2023/05/23 01:51:23;;;;;;;;;;;23.70;52.30;;;;;;1558814;74;789;-58
2023/05/23 01:53:25;;;;;;;;;;;23.70;52.50;;;;;;1561881;74;792;-59
2023/05/23 01:55:27;;;;;;;;;;;23.70;52.30;;;;;;1562674;74;621;-58
2023/05/23 01:57:29;;;;;;;;;;;23.70;52.20;;;;;;1564306;75;1192;-57
2023/05/23 01:59:31;;;;;;;;;;;23.80;52.20;;;;;;1561713;75;737;-57
2023/05/23 02:01:33;;;;;;;;;;;23.80;52.20;;;;;;1563363;75;1933;-58
2023/05/23 02:03:34;;;;;;;;;;;23.70;52.60;;;;;;1564984;75;773;-56
2023/05/23 02:05:36;;;;;;;;;;;23.70;52.50;;;;;;1562154;75;1088;-58
2023/05/23 02:07:38;;;;;;;;;;;23.70;52.90;;;;;;1551412;75;1204;-56
2023/05/23 02:09:40;;;;;;;;;;;23.70;52.80;;;;;;1531689;76;691;-59
2023/05/23 02:11:42;;;;;;;;;;;23.70;52.50;;;;;;1531301;76;816;-61
2023/05/23 02:13:44;;;;;;;;;;;23.70;52.30;;;;;;1541963;76;710;-60
2023/05/23 02:15:46;;;;;;;;;;;23.70;52.20;;;;;;1508537;77;1438;-59
2023/05/23 02:17:48;;;;;;;;;;;23.70;52.30;;;;;;1512188;77;1133;-59
2023/05/23 02:19:50;;;;;;;;;;;23.70;52.30;;;;;;1519421;77;723;-59
2023/05/23 02:21:52;;;;;;;;;;;23.70;52.30;;;;;;1514581;78;1943;-59
2023/05/23 02:23:54;;;;;;;;;;;23.70;52.40;;;;;;1553540;75;642;-59
2023/05/23 02:25:56;;;;;;;;;;;23.60;52.30;;;;;;1552456;75;748;-59
2023/05/23 02:27:58;;;;;;;;;;;23.70;52.50;;;;;;1548541;75;1178;-59
2023/05/23 02:29:59;;;;;;;;;;;23.60;52.50;;;;;;1553554;75;1446;-59
2023/05/23 02:32:01;;;;;;;;;;;23.60;52.40;;;;;;1564735;74;776;-59
2023/05/23 02:34:03;;;;;;;;;;;23.60;52.50;;;;;;1564374;75;740;-59
2023/05/23 02:36:05;;;;;;;;;;;23.60;52.50;;;;;;1577733;75;701;-59
2023/05/23 02:38:07;;;;;;;;;;;23.50;52.50;;;;;;1558058;75;1099;-59
2023/05/23 02:40:09;;;;;;;;;;;23.60;52.50;;;;;;1530977;76;682;-59
2023/05/23 02:42:11;;;;;;;;;;;23.60;52.60;;;;;;1529371;77;1929;-57
2023/05/23 02:44:13;;;;;;;;;;;23.60;52.60;;;;;;1509294;77;1488;-57
2023/05/23 02:46:15;;;;;;;;;;;23.60;52.50;;;;;;1516667;77;682;-57
2023/05/23 02:48:17;;;;;;;;;;;23.60;52.50;;;;;;1502423;76;1142;-56
2023/05/23 02:50:19;;;;;;;;;;;23.60;52.50;;;;;;1518011;78;712;-58
2023/05/23 02:52:21;;;;;;;;;;;23.60;52.50;;;;;;1519949;78;798;-57
2023/05/23 02:54:23;;;;;;;;;;;23.60;52.50;;;;;;1520056;77;680;-58
2023/05/23 02:56:25;;;;;;;;;;;23.60;52.50;;;;;;1515008;77;1158;-57
2023/05/23 02:58:28;;;;;;;;;;;23.70;52.60;;;;;;1529343;76;1493;-59
2023/05/23 03:00:31;;;;;;;;;;;23.70;52.50;;;;;;1533634;76;736;-57
2023/05/23 03:02:33;;;;;;;;;;;23.70;52.60;;;;;;1529914;76;1964;-59
2023/05/23 03:04:36;;;;;;;;;;;23.60;52.40;;;;;;1520932;77;790;-57
2023/05/23 03:06:40;;;;;;;;;;;23.70;52.60;;;;;;1523904;76;1172;-56
2023/05/23 03:08:42;;;;;;;;;;;23.70;52.40;;;;;;1516253;77;747;-56
2023/05/23 03:10:44;;;;;;;;;;;23.70;52.50;;;;;;1508462;77;828;-57
2023/05/23 03:12:46;;;;;;;;;;;23.60;52.50;;;;;;1562656;75;1468;-57
2023/05/23 03:14:48;;;;;;;;;;;23.60;52.60;;;;;;1560901;75;745;-59
2023/05/23 03:16:50;;;;;;;;;;;23.60;52.70;;;;;;1563607;75;1161;-57
2023/05/23 03:18:52;;;;;;;;;;;23.60;52.70;;;;;;1564019;75;704;-57
2023/05/23 03:20:54;;;;;;;;;;;23.60;52.80;;;;;;1563246;74;1930;-56
2023/05/23 03:22:56;;;;;;;;;;;23.60;52.80;;;;;;1529059;77;796;-56
2023/05/23 03:24:57;;;;;;;;;;;23.60;52.70;;;;;;1499151;77;829;-56
2023/05/23 03:27:00;;;;;;;;;;;23.60;52.70;;;;;;1562611;75;1559;-57
2023/05/23 03:29:02;;;;;;;;;;;23.60;52.60;;;;;;1554838;75;760;-56
2023/05/23 03:31:04;;;;;;;;;;;23.60;52.60;;;;;;1521711;77;777;-56
2023/05/23 03:33:06;;;;;;;;;;;23.60;52.60;;;;;;1523056;77;839;-56
2023/05/23 03:35:08;;;;;;;;;;;23.70;52.70;;;;;;1524821;77;714;-56
2023/05/23 03:37:10;;;;;;;;;;;23.70;52.70;;;;;;1519064;77;1185;-59
2023/05/23 03:39:12;;;;;;;;;;;23.60;52.60;;;;;;1522170;77;730;-57
2023/05/23 03:41:14;;;;;;;;;;;23.70;52.60;;;;;;1530294;77;1940;-58
2023/05/23 03:43:16;;;;;;;;;;;23.60;52.60;;;;;;1522061;77;709;-56
2023/05/23 03:45:18;;;;;;;;;;;23.70;52.60;;;;;;1507782;78;754;-58
2023/05/23 03:47:20;;;;;;;;;;;23.70;52.60;;;;;;1522682;76;1152;-56
2023/05/23 03:49:22;;;;;;;;;;;23.70;52.60;;;;;;1525357;76;738;-58
2023/05/23 03:51:23;;;;;;;;;;;23.70;52.60;;;;;;1522142;76;786;-57
2023/05/23 03:53:25;;;;;;;;;;;23.60;52.70;;;;;;1523190;76;794;-56
2023/05/23 03:55:30;;;;;;;;;;;23.70;52.80;;;;;;1522076;76;1595;-58
2023/05/23 03:57:31;;;;;;;;;;;23.60;52.70;;;;;;1510248;77;1566;-56
2023/05/23 03:59:33;;;;;;;;;;;23.70;52.70;;;;;;1497568;77;718;-59
2023/05/23 04:01:35;;;;;;;;;;;23.70;52.80;;;;;;1510172;77;1913;-59
2023/05/23 04:03:37;;;;;;;;;;;23.70;52.70;;;;;;1510069;78;688;-58
2023/05/23 04:05:39;;;;;;;;;;;23.70;52.80;;;;;;1510607;78;713;-56
2023/05/23 04:07:41;;;;;;;;;;;23.70;52.80;;;;;;1509565;77;1189;-56
2023/05/23 04:09:43;;;;;;;;;;;23.70;52.70;;;;;;1523006;76;1696;-56
2023/05/23 04:11:46;;;;;;;;;;;23.70;52.80;;;;;;1506371;77;727;-58
2023/05/23 04:13:48;;;;;;;;;;;23.70;52.80;;;;;;1510941;78;777;-57
2023/05/23 04:15:51;;;;;;;;;;;23.60;52.70;;;;;;1508337;78;791;-56
2023/05/23 04:17:53;;;;;;;;;;;23.70;52.80;;;;;;1529044;76;1147;-58
2023/05/23 04:19:55;;;;;;;;;;;23.70;53.10;;;;;;1510805;77;854;-58
2023/05/23 04:21:57;;;;;;;;;;;23.60;52.80;;;;;;1492438;78;1953;-58
2023/05/23 04:23:59;;;;;;;;;;;23.70;53.00;;;;;;1499289;78;719;-58
2023/05/23 04:26:00;;;;;;;;;;;23.70;52.90;;;;;;1510722;78;712;-58
2023/05/23 04:28:04;;;;;;;;;;;23.70;52.90;;;;;;1521261;76;1149;-57
2023/05/23 04:30:08;;;;;;;;;;;23.70;52.90;;;;;;1506872;77;723;-56
2023/05/23 04:32:10;;;;;;;;;;;23.70;53.00;;;;;;1519016;77;770;-57
2023/05/23 04:34:12;;;;;;;;;;;23.60;53.10;;;;;;1515948;77;959;-57
2023/05/23 04:36:14;;;;;;;;;;;23.60;53.10;;;;;;1515948;77;1414;-57
2023/05/23 04:38:16;;;;;;;;;;;23.70;53.00;;;;;;1509916;77;1101;-57
2023/05/23 04:40:17;;;;;;;;;;;23.70;52.90;;;;;;1511635;77;717;-57
2023/05/23 04:42:23;;;;;;;;;;;23.70;52.80;;;;;;1511083;77;1937;-56
2023/05/23 04:44:23;;;;;;;;;;;23.70;52.90;;;;;;1515537;78;1612;-56
2023/05/23 04:46:25;;;;;;;;;;;23.70;52.90;;;;;;1509063;78;1137;-57
2023/05/23 04:48:27;;;;;;;;;;;23.70;52.90;;;;;;1515703;77;948;-57
2023/05/23 04:50:31;;;;;;;;;;;23.60;52.80;;;;;;1516201;77;1476;-57
2023/05/23 04:52:32;;;;;;;;;;;23.70;53.00;;;;;;1514393;77;1594;-57
2023/05/23 04:54:36;;;;;;;;;;;23.70;53.00;;;;;;1515295;77;744;-57
2023/05/23 04:56:38;;;;;;;;;;;23.60;52.90;;;;;;1511810;77;1147;-59
2023/05/23 04:58:41;;;;;;;;;;;23.70;53.10;;;;;;1505231;77;775;-59
2023/05/23 05:00:43;;;;;;;;;;;23.60;53.00;;;;;;1510616;77;800;-59
2023/05/23 05:02:45;;;;;;;;;;;23.70;53.10;;;;;;1515718;77;1925;-58
2023/05/23 05:04:46;;;;;;;;;;;23.60;52.90;;;;;;1516248;77;1453;-59
2023/05/23 05:06:48;;;;;;;;;;;23.70;53.20;;;;;;1515162;77;1145;-57
2023/05/23 05:08:50;;;;;;;;;;;23.60;53.90;;;;;;1548133;76;588;-59
2023/05/23 05:10:53;;;;;;;;;;;23.60;54.00;;;;;;1541849;76;671;-57
2023/05/23 05:12:55;;;;;;;;;;;23.60;54.20;;;;;;1546119;75;633;-58
2023/05/23 05:14:57;;;;;;;;;;;23.60;53.80;;;;;;1533208;76;779;-57
2023/05/23 05:17:01;;;;;;;;;;;23.60;53.50;;;;;;1545975;77;1131;-57
2023/05/23 05:19:02;;;;;;;;;;;23.70;53.40;;;;;;1561854;75;1713;-56
2023/05/23 05:21:05;;;;;;;;;;;23.70;53.20;;;;;;1546000;75;747;-56
2023/05/23 05:23:08;;;;;;;;;;;23.60;53.00;;;;;;1534846;77;1925;-56
2023/05/23 05:25:10;;;;;;;;;;;23.70;53.30;;;;;;1544495;75;799;-57
2023/05/23 05:27:12;;;;;;;;;;;23.70;53.40;;;;;;1546192;76;1174;-57
2023/05/23 05:29:15;;;;;;;;;;;23.60;53.50;;;;;;1542378;75;719;-58
2023/05/23 05:31:17;;;;;;;;;;;23.60;53.10;;;;;;1542454;75;706;-58
2023/05/23 05:33:22;;;;;;;;;;;23.40;53.10;;;;;;1546843;77;1506;-58
2023/05/23 05:35:23;;;;;;;;;;;23.50;53.40;;;;;;1544726;77;1621;-59
2023/05/23 05:37:25;;;;;;;;;;;23.40;53.40;;;;;;1545133;77;1159;-58
2023/05/23 05:39:27;;;;;;;;;;;23.40;53.40;;;;;;1541448;77;713;-59
2023/05/23 05:41:29;;;;;;;;;;;23.40;53.30;;;;;;1545787;77;676;-59
2023/05/23 05:43:31;;;;;;;;;;;23.40;53.10;;;;;;1542490;76;1928;-60
2023/05/23 05:45:33;;;;;;;;;;;23.40;53.10;;;;;;1538617;75;681;-59
2023/05/23 05:47:36;;;;;;;;;;;23.30;52.90;;;;;;1545881;76;1540;-59
2023/05/23 05:49:38;;;;;;;;;;;23.40;52.90;;;;;;1545446;76;710;-58
2023/05/23 05:51:40;;;;;;;;;;;23.50;53.00;;;;;;1553599;75;814;-59
2023/05/23 05:53:41;;;;;;;;;;;23.40;52.80;;;;;;1544752;76;714;-59
2023/05/23 05:55:43;;;;;;;;;;;23.40;52.60;;;;;;1542180;76;689;-59
2023/05/23 05:57:45;;;;;;;;;;;23.50;52.80;;;;;;1535158;76;1117;-59
2023/05/23 05:59:47;;;;;;;;;;;23.40;52.10;;;;;;1544998;76;778;-59
2023/05/23 06:01:50;;;;;;;;;;;23.30;52.30;;;;;;1544393;76;1931;-58
2023/05/23 06:03:52;;;;;;;;;;;23.40;52.30;;;;;;1545795;76;709;-58
2023/05/23 06:05:53;;;;;;;;;;;23.40;52.10;;;;;;1543478;76;689;-58
2023/05/23 06:07:55;;;;;;;;;;;23.40;52.00;;;;;;1542180;77;1518;-59
2023/05/23 06:09:57;;;;;;;;;;;23.40;51.80;;;;;;1528094;77;736;-58
2023/05/23 06:12:00;;;;;;;;;;;23.50;51.80;;;;;;1534079;77;781;-58
2023/05/23 06:14:02;;;;;;;;;;;23.40;51.50;;;;;;1529571;77;676;-59
2023/05/23 06:16:04;;;;;;;;;;;23.40;51.30;;;;;;1531735;77;1172;-58
2023/05/23 06:18:05;;;;;;;;;;;23.40;51.40;;;;;;1532618;77;1206;-58
2023/05/23 06:20:07;;;;;;;;;;;23.50;51.60;;;;;;1529692;76;683;-59
2023/05/23 06:22:09;;;;;;;;;;;23.40;51.50;;;;;;1533123;76;1924;-59
2023/05/23 06:24:11;;;;;;;;;;;23.50;51.60;;;;;;1533570;76;800;-58
2023/05/23 06:26:13;;;;;;;;;;;23.50;51.80;;;;;;1530997;77;746;-59
2023/05/23 06:28:15;;;;;;;;;;;23.50;51.70;;;;;;1532416;77;1104;-59
2023/05/23 06:30:17;;;;;;;;;;;23.40;51.60;;;;;;1531231;76;1289;-59
2023/05/23 06:32:19;;;;;;;;;;;23.50;51.70;;;;;;1533054;77;704;-59
2023/05/23 06:34:20;;;;;;;;;;;23.50;51.80;;;;;;1533686;76;738;-59
2023/05/23 06:36:22;;;;;;;;;;;23.50;51.60;;;;;;1540427;76;1189;-59
2023/05/23 06:38:26;;;;;;;;;;;23.60;51.50;;;;;;1527915;77;762;-59
2023/05/23 06:40:28;;;;;;;;;;;23.60;51.40;;;;;;1531455;77;825;-59
2023/05/23 06:42:30;;;;;;;;;;;23.60;51.30;;;;;;1527801;76;1920;-59
2023/05/23 06:44:32;;;;;;;;;;;23.60;51.20;;;;;;1533704;77;705;-59
2023/05/23 06:46:34;;;;;;;;;;;23.60;51.10;;;;;;1532585;77;1159;-59
2023/05/23 06:48:35;;;;;;;;;;;23.50;51.20;;;;;;1532823;77;815;-58
2023/05/23 06:50:37;;;;;;;;;;;23.60;51.00;;;;;;1529378;76;633;-58
2023/05/23 06:52:41;;;;;;;;;;;23.40;51.00;;;;;;1525106;76;821;-58
2023/05/23 06:54:43;;;;;;;;;;;23.40;51.10;;;;;;1532240;76;742;-59
2023/05/23 06:56:45;;;;;;;;;;;23.40;51.20;;;;;;1532890;76;1450;-59
2023/05/23 06:58:47;;;;;;;;;;;23.50;51.40;;;;;;1531960;76;740;-58
2023/05/23 07:00:48;;;;;;;;;;;23.40;51.20;;;;;;1537391;77;594;-59
2023/05/23 07:02:50;;;;;;;;;;;23.50;51.30;;;;;;1531825;77;1942;-59
2023/05/23 07:04:52;;;;;;;;;;;23.40;51.30;;;;;;1533832;77;794;-58
2023/05/23 07:06:54;;;;;;;;;;;23.40;51.40;;;;;;1533328;77;1123;-58
2023/05/23 07:08:56;;;;;;;;;;;23.40;51.30;;;;;;1537339;77;1128;-58
2023/05/23 07:10:58;;;;;;;;;;;23.40;51.50;;;;;;1542954;76;1555;-59
2023/05/23 07:13:00;;;;;;;;;;;23.40;51.50;;;;;;1546281;76;726;-58
2023/05/23 07:15:02;;;;;;;;;;;23.30;51.50;;;;;;1545663;76;764;-58
2023/05/23 07:17:04;;;;;;;;;;;23.40;51.50;;;;;;1545004;76;1197;-58
2023/05/23 07:19:05;;;;;;;;;;;23.30;51.50;;;;;;1545160;76;667;-59
2023/05/23 07:21:07;;;;;;;;;;;23.30;51.50;;;;;;1540002;76;748;-59
2023/05/23 07:23:09;;;;;;;;;;;23.30;51.50;;;;;;1534108;75;1944;-58
2023/05/23 07:25:11;;;;;;;;;;;23.30;51.60;;;;;;1538302;75;1486;-58
2023/05/23 07:27:13;;;;;;;;;;;23.40;51.50;;;;;;1547035;77;1201;-58
2023/05/23 07:29:15;;;;;;;;;;;23.30;51.60;;;;;;1543842;76;720;-59
2023/05/23 07:31:17;;;;;;;;;;;23.40;51.60;;;;;;1546056;75;709;-59
2023/05/23 07:33:19;;;;;;;;;;;23.40;51.70;;;;;;1545819;76;768;-59
2023/05/23 07:35:25;;;;;;;;;;;23.30;51.70;;;;;;1539436;75;792;-59
2023/05/23 07:37:26;;;;;;;;;;;23.30;51.70;;;;;;1540644;75;1164;-56
2023/05/23 07:39:28;;;;;;;;;;;23.30;51.80;;;;;;1540266;75;1527;-56
2023/05/23 07:41:30;;;;;;;;;;;23.30;51.80;;;;;;1546507;75;725;-56
2023/05/23 07:43:31;;;;;;;;;;;23.30;51.80;;;;;;1545381;76;1917;-57
2023/05/23 07:45:33;;;;;;;;;;;23.30;51.80;;;;;;1537390;76;697;-56
2023/05/23 07:47:35;;;;;;;;;;;23.30;51.80;;;;;;1546198;77;1142;-57
2023/05/23 07:49:37;;;;;;;;;;;23.40;51.80;;;;;;1544108;76;727;-57
2023/05/23 07:51:40;;;;;;;;;;;23.40;51.80;;;;;;1546345;75;827;-57
2023/05/23 07:53:42;;;;;;;;;;;23.30;51.80;;;;;;1541501;75;1786;-56
2023/05/23 07:55:44;;;;;;;;;;;23.30;51.70;;;;;;1544400;76;1085;-56
2023/05/23 07:57:46;;;;;;;;;;;23.40;51.70;;;;;;1545615;76;1130;-56
2023/05/23 07:59:48;;;;;;;;;;;23.40;51.70;;;;;;1540172;76;751;-58
2023/05/23 08:01:50;;;;;;;;;;;23.40;51.70;;;;;;1543026;75;701;-59
2023/05/23 08:03:52;;;;;;;;;;;23.40;51.70;;;;;;1547928;75;1933;-57
2023/05/23 08:05:54;;;;;;;;;;;23.50;51.80;;;;;;1545840;76;698;-58
2023/05/23 08:07:55;;;;;;;;;;;23.40;51.70;;;;;;1545752;75;1402;-59
2023/05/23 08:09:57;;;;;;;;;;;23.50;51.80;;;;;;1515134;77;1114;-58
2023/05/23 08:11:59;;;;;;;;;;;23.50;51.80;;;;;;1513351;77;657;-58
2023/05/23 08:14:01;;;;;;;;;;;23.50;51.80;;;;;;1515629;77;803;-58
2023/05/23 08:16:03;;;;;;;;;;;23.50;51.80;;;;;;1509775;77;720;-58
2023/05/23 08:18:05;;;;;;;;;;;23.50;51.80;;;;;;1508803;77;1157;-59
2023/05/23 08:20:08;;;;;;;;;;;23.40;51.70;;;;;;1515717;77;738;-58
2023/05/23 08:22:10;;;;;;;;;;;23.50;51.90;;;;;;1518682;77;1423;-58
2023/05/23 08:24:12;;;;;;;;;;;23.50;51.80;;;;;;1513725;77;1946;-58
2023/05/23 08:26:14;;;;;;;;;;;23.60;51.80;;;;;;1515875;77;732;-58
2023/05/23 08:28:16;;;;;;;;;;;23.60;51.70;;;;;;1515408;77;1147;-57
2023/05/23 08:30:18;;;;;;;;;;;23.60;51.70;;;;;;1509268;77;789;-58
2023/05/23 08:32:20;;;;;;;;;;;23.60;51.60;;;;;;1515326;77;774;-58
2023/05/23 08:34:22;;;;;;;;;;;23.60;51.60;;;;;;1515548;77;653;-58
2023/05/23 08:36:24;;;;;;;;;;;23.60;51.60;;;;;;1517722;77;1464;-56
2023/05/23 08:38:26;;;;;;;;;;;23.60;51.50;;;;;;1513879;77;779;-56
2023/05/23 08:40:28;;;;;;;;;;;23.50;51.50;;;;;;1512066;77;675;-57
2023/05/23 08:42:30;;;;;;;;;;;23.70;51.50;;;;;;1514970;77;704;-57
2023/05/23 08:44:32;;;;;;;;;;;23.70;51.50;;;;;;1515032;77;1937;-57
2023/05/23 08:46:34;;;;;;;;;;;23.60;51.30;;;;;;1517478;76;1136;-57
2023/05/23 08:48:36;;;;;;;;;;;23.70;51.40;;;;;;1525824;76;674;-58
2023/05/23 08:50:38;;;;;;;;;;;23.70;51.30;;;;;;1525452;77;1519;-57
2023/05/23 08:52:41;;;;;;;;;;;23.70;51.30;;;;;;1525442;78;717;-56
2023/05/23 08:54:43;;;;;;;;;;;23.70;51.30;;;;;;1520270;78;757;-57
2023/05/23 08:56:46;;;;;;;;;;;23.70;51.30;;;;;;1515476;77;1091;-56
2023/05/23 08:58:48;;;;;;;;;;;23.70;51.30;;;;;;1519238;78;679;-56
2023/05/23 09:00:51;;;;;;;;;;;23.70;51.20;;;;;;1525057;76;798;-56
2023/05/23 09:02:53;;;;;;;;;;;23.70;51.30;;;;;;1517605;77;1906;-56
2023/05/23 09:04:55;;;;;;;;;;;23.70;51.30;;;;;;1523060;76;1357;-57
2023/05/23 09:06:58;;;;;;;;;;;23.70;51.20;;;;;;1521657;76;1151;-58
2023/05/23 09:09:00;;;;;;;;;;;23.70;51.20;;;;;;1499202;77;659;-58
2023/05/23 09:11:02;;;;;;;;;;;23.70;51.30;;;;;;1502313;79;1090;-57
2023/05/23 09:13:04;;;;;;;;;;;23.70;51.40;;;;;;1505994;78;737;-57
2023/05/23 09:15:10;;;;;;;;;;;23.60;51.30;;;;;;1552816;75;771;-58
2023/05/23 09:17:13;;;;;;;;;;;23.60;51.40;;;;;;1555648;75;1207;-58
2023/05/23 09:19:15;;;;;;;;;;;23.60;51.50;;;;;;1570588;75;999;-59
2023/05/23 09:21:17;;;;;;;;;;;23.60;51.50;;;;;;1522105;76;803;-59
2023/05/23 09:23:19;;;;;;;;;;;23.60;51.50;;;;;;1517328;76;1927;-59
2023/05/23 09:25:21;;;;;;;;;;;23.60;51.50;;;;;;1504081;77;659;-58
2023/05/23 09:27:23;;;;;;;;;;;23.60;51.50;;;;;;1506176;78;1132;-59
2023/05/23 09:29:25;;;;;;;;;;;23.60;51.60;;;;;;1501889;78;699;-59
2023/05/23 09:31:28;;;;;;;;;;;23.60;51.60;;;;;;1526899;76;1468;-58
2023/05/23 09:33:48;;;;;;;;;;;23.60;51.60;;;;;;1517642;77;745;-59
2023/05/23 09:35:50;;;;;;;;;;;23.60;51.60;;;;;;1510938;78;787;-58
2023/05/23 09:37:54;;;;;;;;;;;23.60;51.60;;;;;;1502983;77;1195;-59
2023/05/23 09:39:57;;;;;;;;;;;23.60;51.60;;;;;;1484723;79;1634;-59
2023/05/23 09:41:59;;;;;;;;;;;23.60;51.80;;;;;;1501726;78;674;-59
2023/05/23 09:44:02;;;;;;;;;;;23.50;51.70;;;;;;1563215;75;1930;-58
2023/05/23 09:46:08;;;;;;;;;;;23.60;51.60;;;;;;1564297;75;1585;-58
2023/05/23 09:48:12;;;;;;;;;;;23.50;51.70;;;;;;1556894;74;1116;-61
2023/05/23 09:50:14;;;;;;;;;;;23.50;51.70;;;;;;1549163;75;1352;-58
2023/05/23 09:52:18;;;;;;;;;;;23.50;51.70;;;;;;1521226;77;715;-59
2023/05/23 09:54:20;;;;;;;;;;;23.40;51.60;;;;;;1505347;77;1596;-58
2023/05/23 09:56:22;;;;;;;;;;;23.50;51.80;;;;;;1509651;77;1150;-59
2023/05/23 09:58:24;;;;;;;;;;;23.50;51.80;;;;;;1523182;77;704;-57
2023/05/23 10:00:27;;;;;;;;;;;23.50;51.80;;;;;;1510523;77;1497;-57
2023/05/23 10:02:42;;;;;;;;;;;23.50;51.80;;;;;;1563378;75;633;-58
2023/05/23 10:04:44;;;;;;;;;;;23.40;51.70;;;;;;1559264;75;2070;-58
2023/05/23 10:06:54;;;;;;;;;;;23.50;51.80;;;;;;1553341;75;1166;-59
2023/05/23 10:08:55;;;;;;;;;;;23.50;51.90;;;;;;1559618;75;955;-59
2023/05/23 10:10:58;;;;;;;;;;;23.50;51.90;;;;;;1566012;74;1880;-58
2023/05/23 10:13:03;;;;;;;;;;;23.50;51.90;;;;;;1576493;74;675;-59
2023/05/23 10:15:06;;;;;;;;;;;23.50;51.80;;;;;;1569404;74;1570;-58
2023/05/23 10:17:09;;;;;;;;;;;23.50;51.90;;;;;;1573361;74;1201;-58
2023/05/23 10:19:16;;;;;;;;;;;23.50;51.90;;;;;;1570238;75;723;-58
2023/05/23 10:21:19;;;;;;;;;;;23.50;51.90;;;;;;1551502;74;1087;-58
2023/05/23 10:23:21;;;;;;;;;;;23.50;52.00;;;;;;1554440;74;1915;-58
2023/05/23 10:25:23;;;;;;;;;;;23.40;51.90;;;;;;1567318;74;785;-58
2023/05/23 10:27:25;;;;;;;;;;;23.50;52.10;;;;;;1552040;76;1126;-59
2023/05/23 10:29:27;;;;;;;;;;;23.50;52.10;;;;;;1558050;75;1431;-58
2023/05/23 10:31:29;;;;;;;;;;;23.50;52.10;;;;;;1567434;75;797;-57
2023/05/23 10:33:33;;;;;;;;;;;23.60;52.00;;;;;;1560876;75;676;-58
2023/05/23 10:35:48;;;;;;;;;;;23.60;51.90;;;;;;1569004;75;743;-57
2023/05/23 10:38:00;;;;;;;;;;;23.60;51.90;;;;;;1568656;75;1648;-57
2023/05/23 10:40:07;;;;;;;;;;;23.60;51.80;;;;;;1567755;74;705;-57
2023/05/23 10:42:10;;;;;;;;;;;23.70;51.90;;;;;;1562347;75;1359;-56
2023/05/23 10:44:26;;;;;;;;;;;23.60;51.80;;;;;;1570035;74;2015;-58
2023/05/23 10:46:46;;;;;;;;;;;23.60;51.80;;;;;;1573190;74;1190;-58
2023/05/23 10:48:48;;;;;;;;;;;23.70;51.80;;;;;;1567197;74;747;-59
2023/05/23 10:50:54;;;;;;;;;;;23.70;51.70;;;;;;1571757;75;753;-59
2023/05/23 10:52:56;;;;;;;;;;;23.70;51.70;;;;;;1555431;74;1525;-58
2023/05/23 10:54:58;;;;;;;;;;;23.70;51.60;;;;;;1562610;75;714;-59
2023/05/23 10:57:03;;;;;;;;;;;23.80;51.50;;;;;;1572279;74;1415;-58
2023/05/23 10:59:05;;;;;;;;;;;23.80;51.50;;;;;;1570278;74;729;-58
2023/05/23 11:01:11;;;;;;;;;;;23.80;51.40;;;;;;1576309;74;717;-60
2023/05/23 11:03:13;;;;;;;;;;;23.90;51.50;;;;;;1570534;74;1809;-58
2023/05/23 11:05:17;;;;;;;;;;;23.90;51.40;;;;;;1562956;75;1942;-57
2023/05/23 11:07:29;;;;;;;;;;;23.90;51.50;;;;;;1558434;74;1159;-57
2023/05/23 11:09:31;;;;;;;;;;;23.80;51.30;;;;;;1570632;74;732;-58
2023/05/23 11:11:51;;;;;;;;;;;23.90;51.40;;;;;;1561264;75;1465;-58
2023/05/23 11:13:58;;;;;;;;;;;23.90;51.30;;;;;;1564256;74;671;-57
2023/05/23 11:16:00;;;;;;;;;;;23.90;51.40;;;;;;1558734;74;628;-58
2023/05/23 11:18:02;;;;;;;;;;;23.90;51.40;;;;;;1530838;76;1155;-56
2023/05/23 11:20:05;;;;;;;;;;;23.90;51.30;;;;;;1522818;77;1116;-58
2023/05/23 11:22:08;;;;;;;;;;;23.90;51.30;;;;;;1526056;76;675;-56
2023/05/23 11:24:10;;;;;;;;;;;23.90;51.30;;;;;;1518829;76;1902;-56
2023/05/23 11:26:30;;;;;;;;;;;23.90;51.20;;;;;;1529122;76;750;-56
2023/05/23 11:28:32;;;;;;;;;;;23.90;51.30;;;;;;1527402;76;1039;-58
2023/05/23 11:30:39;;;;;;;;;;;23.90;51.20;;;;;;1517478;77;1530;-58
2023/05/23 11:32:38;;;;;;;;;;;23.90;51.20;;;;;;1533292;76;1597;-57
2023/05/23 11:34:40;;;;;;;;;;;23.90;51.20;;;;;;1517768;76;742;-57
2023/05/23 11:36:42;;;;;;;;;;;23.90;51.20;;;;;;1517347;76;1285;-59
2023/05/23 11:38:44;;;;;;;;;;;23.90;51.30;;;;;;1522785;76;1454;-57
2023/05/23 11:40:46;;;;;;;;;;;23.90;51.30;;;;;;1525748;76;737;-59
2023/05/23 11:42:48;;;;;;;;;;;23.90;51.30;;;;;;1536390;77;650;-57
2023/05/23 11:44:50;;;;;;;;;;;23.90;51.20;;;;;;1509927;77;1961;-57
2023/05/23 11:46:59;;;;;;;;;;;23.90;51.20;;;;;;1526716;76;1103;-57
2023/05/23 11:49:01;;;;;;;;;;;24.00;51.20;;;;;;1525786;76;735;-57
2023/05/23 11:51:03;;;;;;;;;;;23.90;51.20;;;;;;1525646;76;718;-57
2023/05/23 11:53:05;;;;;;;;;;;23.90;51.20;;;;;;1521514;76;1438;-58
2023/05/23 11:55:07;;;;;;;;;;;23.90;51.30;;;;;;1525994;76;671;-57
2023/05/23 11:57:09;;;;;;;;;;;23.90;51.30;;;;;;1531202;77;1158;-58
2023/05/23 11:59:11;;;;;;;;;;;23.90;51.30;;;;;;1515394;76;788;-58
2023/05/23 12:01:13;;;;;;;;;;;23.90;51.40;;;;;;1536741;77;666;-58
2023/05/23 12:03:15;;;;;;;;;;;24.00;51.40;;;;;;1521373;76;639;-58
2023/05/23 12:05:17;;;;;;;;;;;23.90;51.20;;;;;;1536272;77;1937;-57
2023/05/23 12:07:20;;;;;;;;;;;23.90;51.20;;;;;;1531680;77;1312;-58
2023/05/23 12:09:21;;;;;;;;;;;23.90;51.10;;;;;;1534377;77;777;-58